createdAt,value
2023-06-01T00:08:02.000Z,17.87
2023-06-01T00:13:20.530Z,17.87
2023-06-01T00:18:38.711Z,17.87
2023-06-01T00:23:56.755Z,17.62
2023-06-01T00:29:15.460Z,17.31
2023-06-01T00:39:33.154Z,17.69
2023-06-01T00:49:50.934Z,16.75
2023-06-01T01:00:08.215Z,16.56
2023-06-01T01:10:25.494Z,16.06
2023-06-01T01:15:44.067Z,15.94
2023-06-01T01:21:02.988Z,15.88
2023-06-01T01:26:21.132Z,15.94
2023-06-01T01:31:39.885Z,15.94
2023-06-01T01:36:58.479Z,15.69
2023-06-01T01:42:17.022Z,15.56
2023-06-01T01:47:35.298Z,15.56
2023-06-01T01:52:53.928Z,15.81
2023-06-01T01:58:12.310Z,15.94
2023-06-01T02:03:31.095Z,15.94
2023-06-01T02:08:49.352Z,16
2023-06-01T02:14:08.107Z,16
2023-06-01T02:19:26.891Z,16.06
2023-06-01T02:24:45.396Z,16.12
2023-06-01T02:30:04.012Z,16.19
2023-06-01T02:35:22.728Z,16.12
2023-06-01T02:40:41.265Z,15.94
2023-06-01T02:45:59.964Z,15.81
2023-06-01T02:51:18.527Z,15.56
2023-06-01T02:56:37.110Z,15.25
2023-06-01T03:01:55.419Z,14.87
2023-06-01T03:07:14.036Z,14.75
2023-06-01T03:12:32.248Z,14.44
2023-06-01T03:17:50.851Z,14.31
2023-06-01T03:23:09.151Z,14.13
2023-06-01T03:28:27.769Z,14.13
2023-06-01T03:33:46.504Z,13.94
2023-06-01T03:39:05.140Z,13.69
2023-06-01T03:44:23.366Z,13.75
2023-06-01T03:49:41.988Z,13.75
2023-06-01T03:55:00.645Z,13.69
2023-06-01T04:00:19.452Z,13.44
2023-06-01T04:05:37.932Z,13.31
2023-06-01T04:10:56.553Z,13.13
2023-06-01T04:16:14.929Z,12.88
2023-06-01T04:21:33.674Z,12.69
2023-06-01T04:26:51.902Z,12.69
2023-06-01T04:32:10.196Z,12.94
2023-06-01T04:37:28.860Z,13
2023-06-01T04:42:47.417Z,13.06
2023-06-01T04:48:06.150Z,13.13
2023-06-01T04:53:24.299Z,13.25
2023-06-01T04:58:42.592Z,13.62
2023-06-01T05:04:01.008Z,13.56
2023-06-01T05:09:19.662Z,13.75
2023-06-01T05:14:38.252Z,14.13
2023-06-01T05:19:56.603Z,14.19
2023-06-01T05:25:15.418Z,14.19
2023-06-01T05:30:33.809Z,14.56
2023-06-01T05:35:52.359Z,14.63
2023-06-01T05:41:11.215Z,14.81
2023-06-01T05:46:29.478Z,15.13
2023-06-01T05:51:48.057Z,15.31
2023-06-01T05:57:06.826Z,15.5
2023-06-01T06:02:25.843Z,15.75
2023-06-01T06:07:44.284Z,15.94
2023-06-01T06:13:02.948Z,16.19
2023-06-01T06:18:21.653Z,16.37
2023-06-01T06:23:40.366Z,16.62
2023-06-01T06:28:59.006Z,16.81
2023-06-01T06:34:17.774Z,17
2023-06-01T06:39:36.252Z,17.31
2023-06-01T06:44:54.982Z,17.69
2023-06-01T06:50:13.722Z,17.87
2023-06-01T06:55:32.521Z,18.25
2023-06-01T07:00:51.382Z,18.56
2023-06-01T07:06:10.582Z,19
2023-06-01T07:11:29.596Z,19.25
2023-06-01T07:16:48.473Z,19.62
2023-06-01T07:22:07.395Z,20.31
2023-06-01T07:27:26.284Z,20.75
2023-06-01T07:32:44.822Z,21.12
2023-06-01T07:38:03.392Z,21.31
2023-06-01T07:43:22.222Z,21.75
2023-06-01T07:48:40.841Z,22.06
2023-06-01T07:53:59.300Z,22.06
2023-06-01T07:59:17.596Z,22.44
2023-06-01T08:04:36.415Z,22.69
2023-06-01T08:09:55.202Z,23.25
2023-06-01T08:15:13.978Z,23.56
2023-06-01T08:20:32.313Z,23.87
2023-06-01T08:25:51.025Z,24.19
2023-06-01T08:31:09.893Z,24.31
2023-06-01T08:36:28.546Z,24.37
2023-06-01T08:41:47.374Z,24.69
2023-06-01T08:47:06.515Z,24.75
2023-06-01T08:52:25.282Z,24.81
2023-06-01T08:57:43.961Z,25.56
2023-06-01T09:08:01.849Z,25.75
2023-06-01T09:18:18.975Z,26.62
2023-06-01T09:23:37.974Z,26.81
2023-06-01T09:33:55.530Z,26.81
2023-06-01T09:39:14.140Z,26.81
2023-06-01T09:44:32.461Z,27.56
2023-06-01T09:49:51.164Z,27.44
2023-06-01T09:55:09.948Z,27.31
2023-06-01T10:00:28.700Z,27.94
2023-06-01T10:05:47.623Z,27.87
2023-06-01T10:11:06.314Z,27.87
2023-06-01T10:16:25.030Z,28.31
2023-06-01T10:21:43.661Z,28.87
2023-06-01T10:27:02.506Z,28.19
2023-06-01T10:32:21.255Z,28.38
2023-06-01T10:37:39.903Z,28.56
2023-06-01T10:42:58.641Z,28.5
2023-06-01T10:48:17.306Z,28.69
2023-06-01T10:53:36.332Z,28.81
2023-06-01T10:58:55.055Z,28.94
2023-06-01T11:04:13.689Z,28.38
2023-06-01T11:09:31.835Z,29
2023-06-01T11:14:50.728Z,29.06
2023-06-01T11:25:16.626Z,29.69
2023-06-01T11:30:35.344Z,28.81
2023-06-01T11:35:54.040Z,29
2023-06-01T11:41:12.755Z,29.12
2023-06-01T11:46:31.441Z,29.12
2023-06-01T11:51:50.159Z,29.37
2023-06-01T11:57:09.004Z,29.37
2023-06-01T12:02:28.387Z,29.87
2023-06-01T12:07:46.662Z,29.69
2023-06-01T12:13:05.215Z,29.81
2023-06-01T12:18:24.317Z,29.12
2023-06-01T12:23:42.429Z,29.19
2023-06-01T12:29:01.422Z,29.69
2023-06-01T12:34:19.452Z,30.19
2023-06-01T12:39:38.197Z,29.87
2023-06-01T12:44:57.024Z,29.81
2023-06-01T12:50:15.491Z,29.69
2023-06-01T12:55:34.006Z,29.63
2023-06-01T13:11:18.286Z,30.19
2023-06-01T13:16:37.038Z,29.81
2023-06-01T13:21:55.980Z,30.31
2023-06-01T13:27:14.532Z,30.25
2023-06-01T13:32:33.291Z,29.87
2023-06-01T13:37:51.944Z,30.37
2023-06-01T13:43:10.716Z,30.06
2023-06-01T13:48:29.528Z,30.5
2023-06-01T13:53:48.095Z,30.31
2023-06-01T13:59:06.764Z,30.31
2023-06-01T14:04:26.885Z,30
2023-06-01T14:09:43.461Z,29.75
2023-06-01T14:15:01.726Z,29.81
2023-06-01T14:20:20.080Z,30
2023-06-01T14:25:38.779Z,29.44
2023-06-01T14:30:57.664Z,29.81
2023-06-01T14:36:16.536Z,29.5
2023-06-01T14:46:39.633Z,30
2023-06-01T14:51:58.303Z,29.87
2023-06-01T14:57:17.261Z,29.87
2023-06-01T15:02:35.616Z,29.56
2023-06-01T15:07:54.164Z,29.37
2023-06-01T15:13:12.693Z,29.25
2023-06-01T15:18:31.507Z,29.56
2023-06-01T15:23:50.373Z,29.31
2023-06-01T15:29:08.795Z,29.56
2023-06-01T15:34:27.502Z,29.25
2023-06-01T15:39:46.520Z,29
2023-06-01T15:45:05.225Z,29.25
2023-06-01T15:50:23.989Z,29.12
2023-06-01T15:55:42.557Z,28.81
2023-06-01T16:01:11.700Z,28.87
2023-06-01T16:06:19.428Z,28.5
2023-06-01T16:11:37.904Z,28.25
2023-06-01T16:16:56.705Z,28.38
2023-06-01T16:22:15.329Z,28.12
2023-06-01T16:27:33.976Z,27.62
2023-06-01T16:32:52.516Z,27.69
2023-06-01T16:38:11.217Z,27.69
2023-06-01T16:43:29.937Z,27.69
2023-06-01T16:48:48.296Z,27.62
2023-06-01T16:54:06.574Z,27.44
2023-06-01T16:59:25.298Z,27.13
2023-06-01T17:04:44.761Z,26.87
2023-06-01T17:10:03.212Z,26.62
2023-06-01T17:15:21.951Z,26.69
2023-06-01T17:20:40.522Z,26.44
2023-06-01T17:25:59.193Z,26.56
2023-06-01T17:31:18.061Z,26.37
2023-06-01T17:36:36.577Z,26.12
2023-06-01T17:41:54.647Z,26
2023-06-01T17:47:13.382Z,26
2023-06-01T17:52:31.826Z,25.75
2023-06-01T17:57:50.312Z,25.5
2023-06-01T18:03:08.607Z,24.87
2023-06-01T18:08:26.818Z,24.5
2023-06-01T18:18:52.087Z,24.31
2023-06-01T18:24:10.538Z,24
2023-06-01T18:29:28.967Z,23.94
2023-06-01T18:34:47.549Z,23.75
2023-06-01T18:40:06.127Z,23.62
2023-06-01T18:45:24.623Z,23.56
2023-06-01T18:50:43.338Z,23.31
2023-06-01T18:56:01.934Z,23.12
2023-06-01T19:01:21.092Z,23
2023-06-01T19:06:39.159Z,22.75
2023-06-01T19:11:57.705Z,22.56
2023-06-01T19:17:15.924Z,22.31
2023-06-01T19:22:34.080Z,22.13
2023-06-01T19:27:52.601Z,21.87
2023-06-01T19:33:11.313Z,21.62
2023-06-01T19:38:29.892Z,21.37
2023-06-01T19:48:54.816Z,20.94
2023-06-01T19:54:13.496Z,20.75
2023-06-01T19:59:32.091Z,20.69
2023-06-01T20:04:50.474Z,20.62
2023-06-01T20:10:08.518Z,20.5
2023-06-01T20:15:27.160Z,20.31
2023-06-01T20:20:45.981Z,20.06
2023-06-01T20:26:04.962Z,19.75
2023-06-01T20:31:23.051Z,19.56
2023-06-01T20:36:41.554Z,19.56
2023-06-01T20:42:00.305Z,19.25
2023-06-01T20:47:18.807Z,19.06
2023-06-01T20:52:37.087Z,18.87
2023-06-01T20:57:55.648Z,18.75
2023-06-01T21:03:14.453Z,18.69
2023-06-01T21:08:32.986Z,18.56
2023-06-01T21:13:51.575Z,18.37
2023-06-01T21:19:10.256Z,18.19
2023-06-01T21:24:28.822Z,18.19
2023-06-01T21:29:47.513Z,18.06
2023-06-01T21:35:05.729Z,18
2023-06-01T21:40:24.207Z,17.87
2023-06-01T21:45:42.837Z,17.87
2023-06-01T21:51:01.100Z,17.69
2023-06-01T21:56:19.588Z,17.56
2023-06-01T22:01:38.323Z,17.5
2023-06-01T22:06:56.883Z,17.37
2023-06-01T22:12:15.545Z,17.25
2023-06-01T22:17:34.445Z,17.19
2023-06-01T22:22:52.701Z,17
2023-06-01T22:28:11.428Z,16.87
2023-06-01T22:38:36.873Z,16.69
2023-06-01T22:43:55.152Z,16.56
2023-06-01T22:49:13.747Z,16.37
2023-06-01T22:54:31.980Z,16.25
2023-06-01T22:59:50.556Z,16.06
2023-06-01T23:05:09.280Z,16
2023-06-01T23:10:27.613Z,15.94
2023-06-01T23:15:46.129Z,15.81
2023-06-01T23:21:04.418Z,15.75
2023-06-01T23:26:22.702Z,15.69
2023-06-01T23:31:41.247Z,15.5
2023-06-01T23:36:59.913Z,15.44
2023-06-01T23:42:18.479Z,15.31
2023-06-01T23:47:37.200Z,15.19
2023-06-01T23:52:55.901Z,15.06
2023-06-01T23:58:14.253Z,14.94
